Last 6 Hours

AM-Scott Top 8120'

15 Minute Data | America/Los_Angeles
as of 5/10/26 7:32 AM PDT
Date & Time Temp (°F) RH (%) Dew Pt (°F) Wet Bulb (°F) Wind Dir (°) Wind Spd (mph) Wind Gust (mph) WindChill (°F) Daily Min Temp (°F) Daily Max Temp (°F)
5/10/26 - 0730 55.8 26 21.3 40.2 WNW | 301 6.0 8.5 55.8 54.0 56.3
5/10/26 - 0715 55.9 26 21.2 40.2 WNW | 282 2.8 7.1 55.9 54.0 56.3
5/10/26 - 0700 56.0 24 19.6 39.8 WNW | 283 2.9 6.3 56.0 54.0 56.3
5/10/26 - 0645 55.0 24 19.2 39.2 W | 279 2.5 5.7 55.0 54.0 56.3
5/10/26 - 0630 55.0 24 18.7 39.1 WNW | 283 3.8 8.5 55.0 54.0 56.3
5/10/26 - 0615 55.1 23 17.8 38.9 WNW | 287 6.0 11.1 55.1 54.0 56.3
5/10/26 - 0600 55.2 23 17.8 39.0 WNW | 282 4.3 8.0 55.2 54.0 56.3
5/10/26 - 0545 54.6 24 18.1 38.8 W | 274 2.0 5.0 54.6 54.0 56.3
5/10/26 - 0530 55.4 22 17.2 38.9 W | 278 2.7 6.7 55.4 54.0 56.3
5/10/26 - 0515 55.4 22 17.4 39.0 W | 272 1.9 6.0 55.4 54.0 56.3
5/10/26 - 0500 55.0 23 17.5 38.8 W | 263 3.1 7.3 55.0 54.0 56.3
5/10/26 - 0445 54.0 23 17.6 38.4 W | 261 4.4 8.4 54.0 54.0 56.3
5/10/26 - 0430 54.0 23 17.1 38.3 W | 264 3.3 7.8 54.0 54.0 56.3
5/10/26 - 0415 54.6 22 16.7 38.5 W | 270 1.5 7.4 54.6 54.1 56.3
5/10/26 - 0400 54.8 22 16.7 38.6 W | 268 2.5 6.5 54.8 54.1 56.3
5/10/26 - 0345 54.4 22 16.9 38.4 W | 262 3.2 7.7 54.4 54.4 56.3
5/10/26 - 0330 54.8 22 16.7 38.6 W | 259 4.3 8.0 54.8 54.8 56.3
5/10/26 - 0315 55.4 21 16.3 38.7 W | 264 3.6 7.6 55.4 54.9 56.3
5/10/26 - 0300 55.7 21 16.5 38.9 W | 268 2.0 6.6 55.7 54.9 56.3
5/10/26 - 0245 55.0 22 17.0 38.7 W | 271 2.3 6.9 55.0 54.9 56.3
5/10/26 - 0230 55.1 23 18.2 39.0 W | 260 5.3 10.0 55.1 54.9 56.3
5/10/26 - 0215 55.3 22 17.5 39.0 WSW | 254 7.1 11.0 55.3 55.2 56.3
5/10/26 - 0200 55.5 23 17.9 39.2 WSW | 251 8.5 12.3 55.5 55.2 56.3
5/10/26 - 0145 55.9 22 17.4 39.2 WSW | 249 8.2 11.6 55.9 55.2 56.3
Max 56.0 26 21.3 40.2 - 8.5 12.3 56.0 55.2 56.3
Avg 55.1 23 17.8 39.0 - 3.9 8.0 55.1 - -
Min 54.0 21 16.3 38.3 - 1.5 5.0 54.0 54.0 56.3